createdAt,value
2017-03-16T00:00:53.530Z,89.04
2017-03-16T00:01:34.003Z,89.61
2017-03-16T00:02:14.474Z,88.57
2017-03-16T00:02:54.934Z,89.04
2017-03-16T00:03:35.417Z,88.57
2017-03-16T00:04:15.836Z,89.71
2017-03-16T00:04:56.302Z,88.38
2017-03-16T00:07:08.993Z,88.28
2017-03-16T00:07:49.466Z,88.38
2017-03-16T00:08:29.952Z,87.71
2017-03-16T00:09:10.421Z,88.19
2017-03-16T00:09:50.848Z,87.71
2017-03-16T00:10:31.276Z,87.62
2017-03-16T00:11:11.673Z,87.62
2017-03-16T00:11:52.072Z,87.9
2017-03-16T00:12:32.519Z,87.9
2017-03-16T00:13:12.910Z,88.38
2017-03-16T00:13:53.340Z,88.57
2017-03-16T00:16:11.103Z,87.86
2017-03-16T00:16:51.503Z,88.05
2017-03-16T00:17:31.919Z,87.29
2017-03-16T00:18:12.323Z,87.38
2017-03-16T00:18:52.754Z,88.67
2017-03-16T00:19:33.150Z,87.95
2017-03-16T00:20:13.554Z,87.95
2017-03-16T00:20:53.950Z,87.86
2017-03-16T00:21:34.373Z,88.05
2017-03-16T00:22:14.754Z,87.38
2017-03-16T00:24:32.497Z,88.24
2017-03-16T00:25:12.928Z,87.19
2017-03-16T00:25:53.357Z,87.67
2017-03-16T00:26:33.787Z,86.91
2017-03-16T00:27:14.186Z,88.24
2017-03-16T00:29:06.627Z,86.72
2017-03-16T00:29:47.045Z,87.01
2017-03-16T00:30:27.448Z,87.38
2017-03-16T00:31:07.847Z,87.14
2017-03-16T00:31:48.257Z,88.71
2017-03-16T00:33:40.776Z,86.34
2017-03-16T00:34:21.153Z,87.95
2017-03-16T00:35:01.559Z,87.95
2017-03-16T00:35:41.943Z,87.95
2017-03-16T00:36:22.329Z,87.38
2017-03-16T00:37:02.723Z,88.24
2017-03-16T00:37:43.114Z,86.34
2017-03-16T00:39:35.586Z,88
2017-03-16T00:40:16.015Z,88.19
2017-03-16T00:40:56.431Z,88.19
2017-03-16T00:41:36.861Z,88.05
2017-03-16T00:42:18.038Z,88.15
2017-03-16T00:44:10.561Z,87.67
2017-03-16T00:44:50.923Z,88.15
2017-03-16T00:45:31.323Z,88.05
2017-03-16T00:46:11.749Z,87.57
2017-03-16T00:46:52.159Z,87.67
2017-03-16T00:49:09.962Z,87.86
2017-03-16T00:49:50.324Z,88.09
2017-03-16T00:50:30.710Z,88.09
2017-03-16T00:51:11.060Z,88.38
2017-03-16T00:51:51.512Z,88
2017-03-16T00:52:31.936Z,87.9
2017-03-16T00:53:12.350Z,88.19
2017-03-16T00:53:52.761Z,88.57
2017-03-16T00:54:33.144Z,88.47
2017-03-16T00:56:20.558Z,88.43
2017-03-16T00:57:01.009Z,87.67
2017-03-16T00:57:41.444Z,88.05
2017-03-16T00:58:21.859Z,87.19
2017-03-16T00:59:02.321Z,87.67
2017-03-16T00:59:42.747Z,88.15
2017-03-16T01:00:23.177Z,87.01
2017-03-16T01:01:03.598Z,87.01
2017-03-16T01:01:44.014Z,87.19
2017-03-16T01:03:56.721Z,86.72
2017-03-16T01:04:37.137Z,86.53
2017-03-16T01:05:17.534Z,86.43
2017-03-16T01:05:57.929Z,86.63
2017-03-16T01:06:38.327Z,86.15
2017-03-16T01:07:18.707Z,86.72
2017-03-16T01:07:59.129Z,86.53
2017-03-16T01:08:39.524Z,86.63
2017-03-16T01:09:19.920Z,86.43
2017-03-16T01:10:00.356Z,86.63
2017-03-16T01:10:40.729Z,87.01
2017-03-16T01:11:21.111Z,86.43
2017-03-16T01:12:01.501Z,86.2
2017-03-16T01:12:41.886Z,86.05
2017-03-16T01:13:22.267Z,86.01
2017-03-16T01:14:02.649Z,85.72
2017-03-16T01:14:43.083Z,85.44
2017-03-16T01:15:23.442Z,85.35
2017-03-16T01:16:03.827Z,84.97
2017-03-16T01:16:44.244Z,84.3
2017-03-16T01:17:24.644Z,84.4
2017-03-16T01:18:05.068Z,85.25
2017-03-16T01:18:45.453Z,83.36
2017-03-16T01:19:25.872Z,84.59
2017-03-16T01:20:06.256Z,84.97
2017-03-16T01:20:46.678Z,84.91
2017-03-16T01:21:27.069Z,85.68
2017-03-16T01:22:07.486Z,85.58
2017-03-16T01:22:47.875Z,84.91
2017-03-16T01:23:28.278Z,85.39
2017-03-16T01:24:08.702Z,85.96
2017-03-16T01:26:26.452Z,85.96
2017-03-16T01:27:06.912Z,85.49
2017-03-16T01:27:47.338Z,86.43
2017-03-16T01:28:27.775Z,85.72
2017-03-16T01:29:08.198Z,84.87
2017-03-16T01:29:48.641Z,84.87
2017-03-16T01:30:29.074Z,85.2
2017-03-16T01:31:09.522Z,85.44
2017-03-16T01:31:49.940Z,85.49
2017-03-16T01:32:30.374Z,84.34
2017-03-16T01:33:10.829Z,85.01
2017-03-16T01:33:51.254Z,85.72
2017-03-16T01:34:32.337Z,85.91
2017-03-16T01:35:12.772Z,86.87
2017-03-16T01:37:30.522Z,86.58
2017-03-16T01:38:10.957Z,86.68
2017-03-16T01:38:51.362Z,86.01
2017-03-16T01:39:31.793Z,85.82
2017-03-16T01:41:44.431Z,85.59
2017-03-16T01:42:24.853Z,84.83
2017-03-16T01:43:05.287Z,84.92
2017-03-16T01:43:45.745Z,82.36
2017-03-16T01:44:26.154Z,81.7
2017-03-16T01:45:06.581Z,81.7
2017-03-16T01:47:19.300Z,79.71
2017-03-16T01:47:59.685Z,77.9
2017-03-16T01:48:40.113Z,76.2
2017-03-16T01:49:20.508Z,75.24
2017-03-16T01:50:00.910Z,74.3
2017-03-16T01:50:41.327Z,74.2
2017-03-16T01:51:21.738Z,75.91
2017-03-16T01:52:02.114Z,76.01
2017-03-16T01:53:49.534Z,76.52
2017-03-16T01:54:29.987Z,77.37
2017-03-16T01:55:10.463Z,77.09
2017-03-16T01:55:50.840Z,77.18
2017-03-16T01:56:31.303Z,77.28
2017-03-16T01:57:11.707Z,77.47
2017-03-16T01:57:52.135Z,78.23
2017-03-16T01:58:32.570Z,78.42
2017-03-16T01:59:12.988Z,78.51
2017-03-16T02:01:00.393Z,78.7
2017-03-16T02:01:40.829Z,78.89
2017-03-16T02:02:21.269Z,77.05
2017-03-16T02:03:02.464Z,76.9
2017-03-16T02:05:15.103Z,78.13
2017-03-16T02:05:56.081Z,77.09
2017-03-16T02:06:36.525Z,77.09
2017-03-16T02:07:16.977Z,77.66
2017-03-16T02:07:57.384Z,77.28
2017-03-16T02:08:38.525Z,77.09
2017-03-16T02:09:18.949Z,77.37
2017-03-16T02:09:59.404Z,78.42
2017-03-16T02:10:39.842Z,78.03
2017-03-16T02:11:20.255Z,78.13
2017-03-16T02:12:00.685Z,77.28
2017-03-16T02:12:41.161Z,78.42
2017-03-16T02:13:21.596Z,78.13
2017-03-16T02:14:02.021Z,77.56
2017-03-16T02:14:42.437Z,78.32
2017-03-16T02:15:22.875Z,77.47
2017-03-16T02:16:03.318Z,78.23
2017-03-16T02:16:44.511Z,78.51
2017-03-16T02:17:24.901Z,78.09
2017-03-16T02:18:05.920Z,76.86
2017-03-16T02:18:46.342Z,76.57
2017-03-16T02:19:26.734Z,77.24
2017-03-16T02:20:07.136Z,76.67
2017-03-16T02:22:19.793Z,76.1
2017-03-16T02:23:00.222Z,74.39
2017-03-16T02:25:12.861Z,76.39
2017-03-16T02:25:53.368Z,76.86
2017-03-16T02:26:33.753Z,77.33
2017-03-16T02:27:14.151Z,77.14
2017-03-16T02:27:54.592Z,76.39
2017-03-16T02:28:35.027Z,74.3
2017-03-16T02:29:15.472Z,74.77
2017-03-16T02:29:55.916Z,74.68
2017-03-16T02:30:36.334Z,73.63
2017-03-16T02:31:16.767Z,73.54
2017-03-16T02:31:57.222Z,72.88
2017-03-16T02:32:37.637Z,73.72
2017-03-16T02:33:18.061Z,73.35
2017-03-16T02:33:58.485Z,72.3
2017-03-16T02:34:38.932Z,73.44
2017-03-16T02:35:19.357Z,72.49
2017-03-16T02:35:59.792Z,72.4
2017-03-16T02:36:40.228Z,72.21
2017-03-16T02:37:20.641Z,72.68
2017-03-16T02:38:01.071Z,71.89
2017-03-16T02:40:18.795Z,72.78
2017-03-16T02:40:59.206Z,73.35
2017-03-16T02:41:39.621Z,72.3
2017-03-16T02:42:20.062Z,73.25
2017-03-16T02:43:00.478Z,72.4
2017-03-16T02:43:40.917Z,72.4
2017-03-16T02:44:21.330Z,72.21
2017-03-16T02:45:01.718Z,72.59
2017-03-16T02:45:42.129Z,72.4
2017-03-16T02:47:29.531Z,73.07
2017-03-16T02:48:09.981Z,72.84
2017-03-16T02:48:50.413Z,72.11
2017-03-16T02:49:30.858Z,72.02
2017-03-16T02:50:12.254Z,72.88
2017-03-16T02:50:53.321Z,73.07
2017-03-16T02:52:40.707Z,72.21
2017-03-16T02:53:21.147Z,72.3
2017-03-16T02:54:01.597Z,71.36
2017-03-16T02:54:42.042Z,72.49
2017-03-16T02:55:22.482Z,73.16
2017-03-16T02:56:02.895Z,72.4
2017-03-16T02:56:43.338Z,71.73
2017-03-16T02:57:23.790Z,71.41
2017-03-16T02:58:04.946Z,71.83
2017-03-16T02:58:45.389Z,71.73
2017-03-16T02:59:25.836Z,72.21
2017-03-16T03:00:06.275Z,72.78
2017-03-16T03:00:46.722Z,72.4
2017-03-16T03:01:27.141Z,72.59
2017-03-16T03:02:07.602Z,72.49
2017-03-16T03:02:48.025Z,73.07
2017-03-16T03:03:28.449Z,73.07
2017-03-16T03:04:08.873Z,72.88
2017-03-16T03:04:49.305Z,71.64
2017-03-16T03:05:29.748Z,72.4
2017-03-16T03:06:10.195Z,72.36
2017-03-16T03:06:50.627Z,72.68
2017-03-16T03:07:31.064Z,72.78
2017-03-16T03:08:11.510Z,71.8
2017-03-16T03:08:51.988Z,71.6
2017-03-16T03:09:32.393Z,71.32
2017-03-16T03:10:12.823Z,71.41
2017-03-16T03:10:53.253Z,70.75
2017-03-16T03:11:33.696Z,71.32
2017-03-16T03:12:14.131Z,70.94
2017-03-16T03:12:54.562Z,71.22
2017-03-16T03:13:35.025Z,69.33
2017-03-16T03:14:15.426Z,69.99
2017-03-16T03:14:55.898Z,69.8
2017-03-16T03:15:36.352Z,70.18
2017-03-16T03:17:54.063Z,70.37
2017-03-16T03:18:34.499Z,69.71
2017-03-16T03:19:14.933Z,70.09
2017-03-16T03:19:55.387Z,70.18
2017-03-16T03:20:35.827Z,71.17
2017-03-16T03:22:33.427Z,70.69
2017-03-16T03:23:13.832Z,69.65
2017-03-16T03:23:54.187Z,70.5
2017-03-16T03:24:34.593Z,70.5
2017-03-16T03:25:14.967Z,69.71
2017-03-16T03:25:55.375Z,70.09
2017-03-16T03:26:35.770Z,70.21
2017-03-16T03:27:16.155Z,69.93
2017-03-16T03:27:56.528Z,70.75
2017-03-16T03:28:36.933Z,70.37
2017-03-16T03:29:17.350Z,71.26
2017-03-16T03:31:30.035Z,70.47
2017-03-16T03:32:10.471Z,69.33
2017-03-16T03:32:50.922Z,70.28
2017-03-16T03:33:31.341Z,70.65
2017-03-16T03:35:23.819Z,70.03
2017-03-16T03:36:04.263Z,70.21
2017-03-16T03:36:44.672Z,70.59
2017-03-16T03:37:25.076Z,70.98
2017-03-16T03:38:05.499Z,70.28
2017-03-16T03:38:45.879Z,71.13
2017-03-16T03:39:26.818Z,70.98
2017-03-16T03:40:07.221Z,70.98
2017-03-16T03:40:47.595Z,71.45
2017-03-16T03:41:27.998Z,70.88
2017-03-16T03:42:08.381Z,72.49
2017-03-16T03:42:48.804Z,71.32
2017-03-16T03:43:29.198Z,70.65
2017-03-16T03:44:09.634Z,70.47
2017-03-16T03:44:50.020Z,70.94
2017-03-16T03:45:30.415Z,70.75
2017-03-16T03:46:10.833Z,70.59
2017-03-16T03:46:51.210Z,70.18
2017-03-16T03:47:31.604Z,71.64
2017-03-16T03:48:12.816Z,70.65
2017-03-16T03:48:53.228Z,71.03
2017-03-16T03:49:33.633Z,70.65
2017-03-16T03:50:14.058Z,70.78
2017-03-16T03:50:54.489Z,69.9
2017-03-16T03:53:07.106Z,72.55
2017-03-16T03:53:47.543Z,70.84
2017-03-16T03:54:27.964Z,70.75
2017-03-16T03:55:08.919Z,69.84
2017-03-16T03:55:49.351Z,69.71
2017-03-16T03:56:29.792Z,71.89
2017-03-16T03:57:10.173Z,70.65
2017-03-16T03:59:02.663Z,70.65
2017-03-16T03:59:43.110Z,70.94
2017-03-16T04:00:23.530Z,69.9
2017-03-16T04:01:03.937Z,69.23
2017-03-16T04:01:45.353Z,69.61
2017-03-16T04:02:26.702Z,68.95
2017-03-16T04:03:07.161Z,69.42
2017-03-16T04:05:24.916Z,68.48
2017-03-16T04:06:06.337Z,68.48
2017-03-16T04:06:46.760Z,68.57
2017-03-16T04:07:27.810Z,68.29
2017-03-16T04:08:08.273Z,68
2017-03-16T04:08:48.705Z,68.19
2017-03-16T04:09:29.132Z,68
2017-03-16T04:10:09.576Z,67.71
2017-03-16T04:10:49.974Z,67.62
2017-03-16T04:11:30.391Z,67.05
2017-03-16T04:13:17.806Z,67.33
2017-03-16T04:13:58.224Z,67.24
2017-03-16T04:14:38.671Z,67.52
2017-03-16T04:15:19.104Z,66.48
2017-03-16T04:15:59.528Z,67.05
2017-03-16T04:16:39.943Z,66.86
2017-03-16T04:17:20.360Z,67.24
2017-03-16T04:18:00.758Z,66.86
2017-03-16T04:20:18.543Z,66.48
2017-03-16T04:20:58.929Z,65.91
2017-03-16T04:23:11.620Z,65.63
2017-03-16T04:23:52.006Z,66.1
2017-03-16T04:24:32.410Z,65.44
2017-03-16T04:25:12.855Z,65.16
2017-03-16T04:25:53.231Z,64.87
2017-03-16T04:26:33.616Z,64.59
2017-03-16T04:27:14.020Z,64.87
2017-03-16T04:27:54.438Z,64.68
2017-03-16T04:28:34.848Z,65.16
2017-03-16T04:29:15.304Z,64.68
2017-03-16T04:29:56.404Z,64.78
2017-03-16T04:30:36.790Z,64.97
2017-03-16T04:32:49.677Z,63.17
2017-03-16T04:33:30.000Z,63.82
2017-03-16T04:34:10.375Z,63.92
2017-03-16T04:34:50.783Z,63.82
2017-03-16T04:35:31.198Z,63.17
2017-03-16T04:36:12.578Z,63.92
2017-03-16T04:36:52.998Z,63.82
2017-03-16T04:37:33.355Z,63.26
2017-03-16T04:38:14.503Z,64.11
2017-03-16T04:38:54.949Z,63.82
2017-03-16T04:39:35.313Z,63.26
2017-03-16T04:40:15.738Z,61.83
2017-03-16T04:40:56.104Z,62.88
2017-03-16T04:41:37.471Z,62.59
2017-03-16T04:42:17.864Z,60.6
2017-03-16T04:42:58.281Z,58.99
2017-03-16T04:43:38.663Z,58.8
2017-03-16T04:44:19.103Z,58.89
2017-03-16T04:44:59.487Z,57.19
2017-03-16T04:45:39.896Z,56.71
2017-03-16T04:46:20.341Z,54.53
2017-03-16T04:47:00.756Z,54.53
2017-03-16T04:47:41.896Z,54.34
2017-03-16T04:49:29.267Z,52.16
2017-03-16T04:51:46.942Z,49.69
2017-03-16T04:52:27.360Z,50.26
2017-03-16T04:53:07.797Z,51.68
2017-03-16T04:53:48.230Z,50.55
2017-03-16T04:54:28.680Z,51.03
2017-03-16T04:55:09.117Z,50.83
2017-03-16T04:55:49.554Z,49.98
2017-03-16T04:56:29.953Z,50.17
2017-03-16T04:57:10.400Z,50.26
2017-03-16T04:57:50.831Z,50.74
2017-03-16T04:58:31.243Z,50.17
2017-03-16T04:59:11.657Z,51.59
2017-03-16T05:01:09.271Z,51.4
2017-03-16T05:01:49.647Z,50.74
2017-03-16T05:02:30.054Z,50.07
2017-03-16T05:03:10.432Z,50.93
2017-03-16T05:03:50.849Z,50.74
2017-03-16T05:04:31.239Z,50.93
2017-03-16T05:05:11.641Z,50.55
2017-03-16T05:05:52.043Z,50.64
2017-03-16T05:06:32.453Z,50.83
2017-03-16T05:07:12.825Z,51.12
2017-03-16T05:07:53.240Z,50.83
2017-03-16T05:08:33.639Z,50.93
2017-03-16T05:10:26.110Z,50.93
2017-03-16T05:11:07.086Z,49.69
2017-03-16T05:11:47.504Z,49.6
2017-03-16T05:12:27.943Z,49.88
2017-03-16T05:13:08.380Z,50.26
2017-03-16T05:13:48.749Z,49.88
2017-03-16T05:14:29.176Z,49.98
2017-03-16T05:15:09.601Z,49.69
2017-03-16T05:15:50.034Z,49.6
2017-03-16T05:16:30.475Z,49.32
2017-03-16T05:17:10.895Z,49.22
2017-03-16T05:17:51.325Z,48.84
2017-03-16T05:18:31.760Z,49.03
2017-03-16T05:19:12.190Z,48.94
2017-03-16T05:19:52.615Z,48.75
2017-03-16T05:20:33.032Z,48.65
2017-03-16T05:22:30.594Z,47.99
2017-03-16T05:23:11.037Z,48.08
2017-03-16T05:23:51.459Z,47.89
2017-03-16T05:24:32.574Z,47.32
2017-03-16T05:25:13.022Z,47.3
2017-03-16T05:25:53.443Z,46.54
2017-03-16T05:26:33.881Z,45.69
2017-03-16T05:27:14.331Z,45.21
2017-03-16T05:27:54.737Z,45.24
2017-03-16T05:28:35.170Z,45.14
2017-03-16T05:29:15.608Z,44.85
2017-03-16T05:29:56.026Z,45.12
2017-03-16T05:30:36.438Z,44.38
2017-03-16T05:31:16.876Z,44.36
2017-03-16T05:33:29.604Z,44.93
2017-03-16T05:34:09.929Z,44.55
2017-03-16T05:34:51.050Z,44.08
2017-03-16T05:36:38.438Z,43.51
2017-03-16T05:37:18.886Z,43.88
2017-03-16T05:37:59.312Z,43.41
2017-03-16T05:38:39.767Z,43.6
2017-03-16T05:39:20.151Z,43.41
2017-03-16T05:40:00.584Z,43.51
2017-03-16T05:40:42.671Z,43.41
2017-03-16T05:41:23.099Z,43.41
2017-03-16T05:42:03.498Z,43.23
2017-03-16T05:42:43.915Z,43.32
2017-03-16T05:43:24.342Z,43.04
2017-03-16T05:44:04.769Z,43.04
2017-03-16T05:44:45.204Z,43.41
2017-03-16T05:45:25.645Z,43.32
2017-03-16T05:46:06.098Z,43.13
2017-03-16T05:48:18.832Z,42.85
2017-03-16T05:48:59.194Z,42.37
2017-03-16T05:49:39.566Z,41.99
2017-03-16T05:50:19.958Z,41.99
2017-03-16T05:51:00.360Z,42.08
2017-03-16T05:51:40.764Z,41.8
2017-03-16T05:52:21.143Z,42.27
2017-03-16T05:53:01.556Z,42.66
2017-03-16T05:54:59.139Z,43.51
2017-03-16T05:55:39.525Z,43.51
2017-03-16T05:56:19.967Z,43.79
2017-03-16T05:57:00.395Z,44.17
2017-03-16T05:58:47.819Z,43.98
2017-03-16T05:59:28.198Z,44.65
2017-03-16T06:00:08.643Z,44.46
2017-03-16T06:00:49.095Z,45.31
2017-03-16T06:01:29.505Z,44.93
2017-03-16T06:02:09.933Z,45.5
2017-03-16T06:02:50.351Z,45.78
2017-03-16T06:03:30.787Z,45.97
2017-03-16T06:04:11.211Z,45.5
2017-03-16T06:04:51.614Z,46.07
2017-03-16T06:05:32.054Z,46.73
2017-03-16T06:06:12.489Z,46.83
2017-03-16T06:06:52.958Z,46.26
2017-03-16T06:07:33.360Z,46.35
2017-03-16T06:08:13.786Z,46.35
2017-03-16T06:08:54.211Z,45.88
2017-03-16T06:09:34.644Z,45.59
2017-03-16T06:10:15.073Z,45.69
2017-03-16T06:10:55.519Z,45.4
2017-03-16T06:11:35.924Z,45.21
2017-03-16T06:12:16.338Z,45.88
2017-03-16T06:12:56.766Z,46.35
2017-03-16T06:13:37.192Z,46.83
2017-03-16T06:15:54.932Z,47.49
2017-03-16T06:16:35.364Z,46.92
2017-03-16T06:17:15.811Z,47.39
2017-03-16T06:17:56.254Z,48.15
2017-03-16T06:18:36.740Z,47.96
2017-03-16T06:19:17.138Z,48.82
2017-03-16T06:19:57.676Z,49.86
2017-03-16T06:20:38.151Z,49.48
2017-03-16T06:21:18.573Z,49.76
2017-03-16T06:21:59.014Z,50.81
2017-03-16T06:22:39.430Z,50.83
2017-03-16T06:23:19.876Z,51.09
2017-03-16T06:25:32.552Z,52.54
2017-03-16T06:26:12.922Z,52.14
2017-03-16T06:26:53.313Z,51.87
2017-03-16T06:27:33.713Z,51.85
2017-03-16T06:28:14.123Z,51.57
2017-03-16T06:28:54.524Z,52.26
2017-03-16T06:29:34.945Z,52.73
2017-03-16T06:30:15.352Z,53.11
2017-03-16T06:30:55.731Z,53.11
2017-03-16T06:31:36.151Z,53.68
2017-03-16T06:32:16.519Z,54.25
2017-03-16T06:32:56.893Z,55
2017-03-16T06:34:54.487Z,55.38
2017-03-16T06:35:34.915Z,55.1
2017-03-16T06:36:15.348Z,56.81
2017-03-16T06:36:55.781Z,56.81
2017-03-16T06:37:36.197Z,58.14
2017-03-16T06:38:16.627Z,58.42
2017-03-16T06:38:57.076Z,57.85
2017-03-16T06:39:37.506Z,57.76
2017-03-16T06:40:17.950Z,58.83
2017-03-16T06:40:58.406Z,60.16
2017-03-16T06:41:38.829Z,60.16
2017-03-16T06:42:19.273Z,60.6
2017-03-16T06:42:59.698Z,60.16
2017-03-16T06:43:40.137Z,60.16
2017-03-16T06:44:20.568Z,59.78
2017-03-16T06:45:01.001Z,59.49
2017-03-16T06:45:41.428Z,59.21
2017-03-16T06:47:54.057Z,59.56
2017-03-16T06:48:34.492Z,59.21
2017-03-16T06:49:14.910Z,60.63
2017-03-16T06:49:55.333Z,59.37
2017-03-16T06:50:35.779Z,59.27
2017-03-16T06:51:16.208Z,58.17
2017-03-16T06:51:56.652Z,59.18
2017-03-16T06:52:37.085Z,59.84
2017-03-16T06:53:17.521Z,59.49
2017-03-16T06:53:57.990Z,59.3
2017-03-16T06:54:38.369Z,59.88
2017-03-16T06:55:18.829Z,60.63
2017-03-16T06:55:59.267Z,59.08
2017-03-16T06:56:39.703Z,60.82
2017-03-16T06:57:20.143Z,61.2
2017-03-16T06:58:00.571Z,61.87
2017-03-16T06:58:41.052Z,62.15
2017-03-16T06:59:21.483Z,62.05
2017-03-16T07:00:01.920Z,63.01
2017-03-16T07:00:42.357Z,62.82
2017-03-16T07:01:22.793Z,62.82
2017-03-16T07:02:03.238Z,63.48
2017-03-16T07:02:43.691Z,63.86
2017-03-16T07:03:24.115Z,63.95
2017-03-16T07:04:04.539Z,63.76
2017-03-16T07:04:44.995Z,65
2017-03-16T07:05:25.429Z,62.91
2017-03-16T07:06:05.879Z,64.14
2017-03-16T07:06:46.286Z,64.14
2017-03-16T07:07:26.734Z,65.28
2017-03-16T07:08:07.190Z,65.19
2017-03-16T07:08:47.644Z,65.66
2017-03-16T07:11:05.454Z,66.27
2017-03-16T07:11:45.834Z,66.83
2017-03-16T07:12:26.264Z,67.4
2017-03-16T07:13:06.750Z,68.92
2017-03-16T07:13:47.185Z,69.68
2017-03-16T07:14:27.616Z,71.01
2017-03-16T07:15:08.080Z,72.72
2017-03-16T07:15:48.569Z,75.32
2017-03-16T07:16:29.023Z,78.36
2017-03-16T07:17:10.119Z,79.6
2017-03-16T07:17:50.496Z,81.78
2017-03-16T07:18:30.954Z,84.01
2017-03-16T07:19:11.408Z,85.43
2017-03-16T07:19:51.915Z,87.05
2017-03-16T07:20:32.358Z,87.62
2017-03-16T07:21:12.771Z,89.09
2017-03-16T07:21:53.220Z,89
2017-03-16T07:22:33.671Z,88.8
2017-03-16T07:23:14.150Z,88.52
2017-03-16T07:23:54.590Z,89.47
2017-03-16T07:24:35.084Z,90.04
2017-03-16T07:25:15.537Z,90.37
2017-03-16T07:25:55.943Z,90.18
2017-03-16T07:26:36.376Z,89.61
2017-03-16T07:28:28.897Z,90.03
2017-03-16T07:29:09.373Z,89.18
2017-03-16T07:29:49.820Z,88.85
2017-03-16T07:30:30.291Z,89.08
2017-03-16T07:31:10.780Z,88.89
2017-03-16T07:31:51.227Z,88.13
2017-03-16T07:32:31.714Z,88.08
2017-03-16T07:33:12.201Z,87.41
2017-03-16T07:33:52.654Z,87.7
2017-03-16T07:34:33.096Z,87.23
2017-03-16T07:35:13.535Z,86.08
2017-03-16T07:35:53.964Z,87.23
2017-03-16T07:36:34.477Z,87.32
2017-03-16T07:37:14.944Z,86.32
2017-03-16T07:39:02.423Z,84.36
2017-03-16T07:39:42.901Z,83.06
2017-03-16T07:40:23.388Z,81.63
2017-03-16T07:41:03.866Z,80.87
2017-03-16T07:41:44.356Z,81.2
2017-03-16T07:42:24.962Z,78.56
2017-03-16T07:43:05.466Z,76.84
2017-03-16T07:43:45.917Z,76.65
2017-03-16T07:44:26.404Z,76.18
2017-03-16T07:45:06.887Z,74.93
2017-03-16T07:45:47.371Z,75.89
2017-03-16T07:47:34.831Z,74.65
2017-03-16T07:48:15.333Z,74.27
2017-03-16T07:48:55.820Z,74.52
2017-03-16T07:49:36.299Z,75.51
2017-03-16T07:50:16.715Z,75.95
2017-03-16T07:50:57.162Z,77.09
2017-03-16T07:51:37.627Z,77.62
2017-03-16T07:52:18.093Z,78.3
2017-03-16T07:52:58.585Z,78.96
2017-03-16T07:55:16.413Z,78.49
2017-03-16T07:55:56.832Z,78.14
2017-03-16T07:56:37.307Z,77.57
2017-03-16T07:57:17.748Z,78.1
2017-03-16T07:57:58.192Z,78.23
2017-03-16T08:00:10.939Z,74.37
2017-03-16T08:00:51.346Z,73.6
2017-03-16T08:01:31.782Z,74.46
2017-03-16T08:03:24.340Z,74.74
2017-03-16T08:04:04.831Z,76.1
2017-03-16T08:04:45.303Z,77.53
2017-03-16T08:05:25.794Z,78.67
2017-03-16T08:06:06.300Z,79.49
2017-03-16T08:06:46.779Z,80.83
2017-03-16T08:07:27.271Z,81.93
2017-03-16T08:08:07.722Z,82.89
2017-03-16T08:08:48.244Z,83.8
2017-03-16T08:09:28.702Z,84.65
2017-03-16T08:10:09.209Z,86.22
2017-03-16T08:10:49.690Z,86.9
2017-03-16T08:11:30.192Z,87.03
2017-03-16T08:12:10.638Z,86.65
2017-03-16T08:12:51.097Z,87.6
2017-03-16T08:13:31.538Z,87.03
2017-03-16T08:14:11.989Z,87.18
2017-03-16T08:14:52.503Z,87.51
2017-03-16T08:15:32.958Z,87.27
2017-03-16T08:17:50.762Z,87.37
2017-03-16T08:18:31.240Z,87.41
2017-03-16T08:19:11.737Z,87.85
2017-03-16T08:19:52.230Z,87.51
2017-03-16T08:20:32.726Z,87.32
2017-03-16T08:21:13.242Z,86.55
2017-03-16T08:21:53.729Z,86.65
2017-03-16T08:22:34.216Z,86.32
2017-03-16T08:23:14.714Z,85.74
2017-03-16T08:23:55.209Z,84.36
2017-03-16T08:26:13.040Z,79.72
2017-03-16T08:26:53.537Z,78.94
2017-03-16T08:27:34.026Z,76.94
2017-03-16T08:28:14.484Z,74.98
2017-03-16T08:28:55.058Z,73.16
2017-03-16T08:29:35.517Z,73.44
2017-03-16T08:31:28.125Z,71.47
2017-03-16T08:32:08.593Z,71.09
2017-03-16T08:32:49.070Z,70.36
2017-03-16T08:33:29.557Z,69.7
2017-03-16T08:34:10.112Z,70.01
2017-03-16T08:34:50.554Z,67.91
2017-03-16T08:35:31.041Z,69.47
2017-03-16T08:36:11.516Z,69.5
2017-03-16T08:36:52.017Z,67.53
2017-03-16T08:37:32.481Z,66.41
2017-03-16T08:38:12.960Z,64.72
2017-03-16T08:38:53.468Z,64.88
2017-03-16T08:39:33.949Z,65.97
2017-03-16T08:41:51.986Z,66.63
2017-03-16T08:42:32.414Z,67.88
2017-03-16T08:43:12.922Z,67.88
2017-03-16T08:43:53.478Z,67.63
2017-03-16T08:44:34.021Z,65.94
2017-03-16T08:45:14.557Z,65.71
2017-03-16T08:45:55.054Z,65.17
2017-03-16T08:46:35.546Z,64.88
2017-03-16T08:47:16.038Z,66.38
2017-03-16T08:47:56.549Z,67.3
2017-03-16T08:48:37.093Z,67.78
2017-03-16T08:49:17.562Z,68.84
2017-03-16T08:49:58.069Z,69.7
2017-03-16T08:50:38.619Z,69.12
2017-03-16T08:51:19.087Z,68.74
2017-03-16T08:51:59.591Z,70.23
2017-03-16T08:52:40.075Z,69.98
2017-03-16T08:53:20.627Z,69.35
2017-03-16T08:54:01.164Z,66.8
2017-03-16T08:54:41.683Z,65.94
2017-03-16T08:55:22.194Z,64.88
2017-03-16T08:56:02.699Z,65.17
2017-03-16T08:58:20.497Z,64.02
2017-03-16T08:59:00.973Z,65.33
2017-03-16T08:59:41.479Z,67.14
2017-03-16T09:00:21.973Z,66.67
2017-03-16T09:01:02.520Z,68.01
2017-03-16T09:01:42.987Z,67.43
2017-03-16T09:02:23.465Z,66.41
2017-03-16T09:04:41.578Z,61.53
2017-03-16T09:05:22.639Z,59.64
2017-03-16T09:06:03.149Z,59.26
2017-03-16T09:06:43.618Z,60.54
2017-03-16T09:07:24.133Z,61.79
2017-03-16T09:08:05.514Z,62.9
2017-03-16T09:08:50.060Z,64.69
2017-03-16T09:09:30.534Z,65.65
2017-03-16T09:10:11.022Z,66.09
2017-03-16T09:10:51.510Z,67.05
2017-03-16T09:11:31.947Z,66.7
2017-03-16T09:12:13.032Z,66.41
2017-03-16T09:12:53.993Z,66.76
2017-03-16T09:14:46.570Z,68.29
2017-03-16T09:15:27.038Z,68.39
2017-03-16T09:16:07.502Z,67.88
2017-03-16T09:16:47.991Z,68.1
2017-03-16T09:17:28.478Z,67.82
2017-03-16T09:18:08.967Z,67.69
2017-03-16T09:18:49.458Z,67.88
2017-03-16T09:19:29.928Z,67.53
2017-03-16T09:20:10.407Z,67.82
2017-03-16T09:20:50.948Z,69.5
2017-03-16T09:21:31.381Z,69.15
2017-03-16T09:22:11.858Z,68.2
2017-03-16T09:22:52.329Z,67.72
2017-03-16T09:23:32.836Z,67.82
2017-03-16T09:24:13.313Z,67.82
2017-03-16T09:24:53.799Z,67.91
2017-03-16T09:25:34.256Z,67.82
2017-03-16T09:26:14.718Z,67.94
2017-03-16T09:26:55.190Z,67.66
2017-03-16T09:27:35.690Z,67.34
2017-03-16T09:28:16.191Z,67.82
2017-03-16T09:28:56.674Z,67.63
2017-03-16T09:29:37.157Z,69.7
2017-03-16T09:30:17.643Z,69.54
2017-03-16T09:30:58.105Z,68.68
2017-03-16T09:32:50.659Z,68.39
2017-03-16T09:33:31.213Z,69.25
2017-03-16T09:34:11.701Z,69.06
2017-03-16T09:34:52.209Z,68.49
2017-03-16T09:35:32.705Z,67.72
2017-03-16T09:36:13.263Z,67.56
2017-03-16T09:36:53.781Z,69.41
2017-03-16T09:39:06.508Z,72.72
2017-03-16T09:39:46.986Z,72.62
2017-03-16T09:40:27.452Z,72.18
2017-03-16T09:41:07.969Z,70.4
2017-03-16T09:41:48.436Z,69.64
2017-03-16T09:42:28.893Z,67.94
2017-03-16T09:43:09.379Z,67.66
2017-03-16T09:45:22.852Z,69.35
2017-03-16T09:46:03.277Z,69.73
2017-03-16T09:46:44.395Z,68.42
2017-03-16T09:47:25.002Z,67.27
2017-03-16T09:48:06.108Z,66.74
2017-03-16T09:50:23.930Z,66.89
2017-03-16T09:51:04.456Z,67.02
2017-03-16T09:51:45.033Z,67.02
2017-03-16T09:52:25.517Z,66.54
2017-03-16T09:53:05.999Z,66.74
2017-03-16T09:54:58.571Z,66.83
2017-03-16T09:55:39.007Z,66.25
2017-03-16T09:56:19.505Z,66.54
2017-03-16T09:56:59.975Z,67.18
2017-03-16T09:57:40.442Z,66.89
2017-03-16T09:58:20.938Z,67.27
2017-03-16T09:59:01.433Z,66.93
2017-03-16T09:59:41.900Z,66.61
2017-03-16T10:00:22.407Z,66.93
2017-03-16T10:01:02.924Z,66.7
2017-03-16T10:01:43.407Z,66.83
2017-03-16T10:02:23.892Z,66.8
2017-03-16T10:03:04.371Z,67.18
2017-03-16T10:03:44.870Z,68.13
2017-03-16T10:04:25.360Z,67.47
2017-03-16T10:05:05.895Z,66.35
2017-03-16T10:05:46.388Z,66.45
2017-03-16T10:06:26.880Z,65.81
2017-03-16T10:07:07.361Z,64.95
2017-03-16T10:07:47.867Z,64.02
2017-03-16T10:08:28.419Z,61.66
2017-03-16T10:09:08.971Z,60.82
2017-03-16T10:09:49.502Z,59.45
2017-03-16T10:10:30.009Z,60.05
2017-03-16T10:11:10.519Z,59.77
2017-03-16T10:11:50.999Z,59.74
2017-03-16T10:12:31.499Z,60.5
2017-03-16T10:13:11.998Z,60.44
2017-03-16T10:13:52.498Z,59.64
2017-03-16T10:14:32.989Z,60.6
2017-03-16T10:15:13.495Z,60.57
2017-03-16T10:15:53.936Z,61.82
2017-03-16T10:16:34.414Z,62.3